sensor_id;sensor_type;location;lat;lon;timestamp;P1;durP1;ratioP1;P2;durP2;ratioP2
3331;SDS011;1678;50.94845400;5.30809100;2022-08-03T00:02:17;1.93;;;1.93;;
3331;SDS011;1678;50.94845400;5.30809100;2022-08-03T00:04:45;2.13;;;1.93;;
3331;SDS011;1678;50.94845400;5.30809100;2022-08-03T00:07:14;4.90;;;2.07;;
3331;SDS011;1678;50.94845400;5.30809100;2022-08-03T00:09:42;2.40;;;1.70;;
3331;SDS011;1678;50.94845400;5.30809100;2022-08-03T00:12:11;6.60;;;2.23;;
3331;SDS011;1678;50.94845400;5.30809100;2022-08-03T00:14:39;2.93;;;1.87;;
3331;SDS011;1678;50.94845400;5.30809100;2022-08-03T00:17:07;2.23;;;2.13;;
3331;SDS011;1678;50.94845400;5.30809100;2022-08-03T00:19:37;1.60;;;1.57;;
3331;SDS011;1678;50.94845400;5.30809100;2022-08-03T00:22:05;2.23;;;2.10;;
3331;SDS011;1678;50.94845400;5.30809100;2022-08-03T00:24:33;3.30;;;2.10;;
3331;SDS011;1678;50.94845400;5.30809100;2022-08-03T00:27:02;4.80;;;1.70;;
3331;SDS011;1678;50.94845400;5.30809100;2022-08-03T00:29:30;1.67;;;1.50;;
3331;SDS011;1678;50.94845400;5.30809100;2022-08-03T00:32:18;2.30;;;1.70;;
3331;SDS011;1678;50.94845400;5.30809100;2022-08-03T00:34:51;10.57;;;1.90;;
3331;SDS011;1678;50.94845400;5.30809100;2022-08-03T00:37:24;3.00;;;1.60;;
3331;SDS011;1678;50.94845400;5.30809100;2022-08-03T00:40:07;1.77;;;1.33;;
3331;SDS011;1678;50.94845400;5.30809100;2022-08-03T00:42:45;4.20;;;1.90;;
3331;SDS011;1678;50.94845400;5.30809100;2022-08-03T00:45:13;2.20;;;1.93;;
3331;SDS011;1678;50.94845400;5.30809100;2022-08-03T00:47:42;6.77;;;2.10;;
3331;SDS011;1678;50.94845400;5.30809100;2022-08-03T00:50:11;5.97;;;1.60;;
3331;SDS011;1678;50.94845400;5.30809100;2022-08-03T00:52:40;2.27;;;2.07;;
3331;SDS011;1678;50.94845400;5.30809100;2022-08-03T00:55:09;1.87;;;1.77;;
3331;SDS011;1678;50.94845400;5.30809100;2022-08-03T00:57:37;3.10;;;1.90;;
3331;SDS011;1678;50.94845400;5.30809100;2022-08-03T01:00:06;1.63;;;1.60;;
3331;SDS011;1678;50.94845400;5.30809100;2022-08-03T01:02:37;2.27;;;2.00;;
3331;SDS011;1678;50.94845400;5.30809100;2022-08-03T01:05:06;1.97;;;1.87;;
3331;SDS011;1678;50.94845400;5.30809100;2022-08-03T01:07:39;2.67;;;1.33;;
3331;SDS011;1678;50.94845400;5.30809100;2022-08-03T01:10:12;2.03;;;1.93;;
3331;SDS011;1678;50.94845400;5.30809100;2022-08-03T01:12:47;3.67;;;1.77;;
3331;SDS011;1678;50.94845400;5.30809100;2022-08-03T01:15:24;1.80;;;1.70;;
3331;SDS011;1678;50.94845400;5.30809100;2022-08-03T01:18:05;1.77;;;1.67;;
3331;SDS011;1678;50.94845400;5.30809100;2022-08-03T01:20:39;3.33;;;2.27;;
3331;SDS011;1678;50.94845400;5.30809100;2022-08-03T01:23:30;2.10;;;2.00;;
3331;SDS011;1678;50.94845400;5.30809100;2022-08-03T01:26:12;1.53;;;1.53;;
3331;SDS011;1678;50.94845400;5.30809100;2022-08-03T01:29:14;2.20;;;2.00;;
3331;SDS011;1678;50.94845400;5.30809100;2022-08-03T01:32:05;1.60;;;1.50;;
3331;SDS011;1678;50.94845400;5.30809100;2022-08-03T01:34:58;4.13;;;2.00;;
3331;SDS011;1678;50.94845400;5.30809100;2022-08-03T01:37:30;2.40;;;1.70;;
3331;SDS011;1678;50.94845400;5.30809100;2022-08-03T01:40:04;1.90;;;1.80;;
3331;SDS011;1678;50.94845400;5.30809100;2022-08-03T01:42:34;1.90;;;1.90;;
3331;SDS011;1678;50.94845400;5.30809100;2022-08-03T01:45:04;1.83;;;1.60;;
3331;SDS011;1678;50.94845400;5.30809100;2022-08-03T01:47:36;3.03;;;2.40;;
3331;SDS011;1678;50.94845400;5.30809100;2022-08-03T01:50:06;2.73;;;2.63;;
3331;SDS011;1678;50.94845400;5.30809100;2022-08-03T01:52:36;1.83;;;1.70;;
3331;SDS011;1678;50.94845400;5.30809100;2022-08-03T01:55:06;3.80;;;3.20;;
3331;SDS011;1678;50.94845400;5.30809100;2022-08-03T01:57:35;2.83;;;2.63;;
3331;SDS011;1678;50.94845400;5.30809100;2022-08-03T02:00:25;2.67;;;2.47;;
3331;SDS011;1678;50.94845400;5.30809100;2022-08-03T02:02:55;3.37;;;1.93;;
3331;SDS011;1678;50.94845400;5.30809100;2022-08-03T02:05:24;4.00;;;1.90;;
3331;SDS011;1678;50.94845400;5.30809100;2022-08-03T02:07:54;2.67;;;1.67;;
3331;SDS011;1678;50.94845400;5.30809100;2022-08-03T02:10:23;2.00;;;1.90;;
3331;SDS011;1678;50.94845400;5.30809100;2022-08-03T02:13:01;3.43;;;3.23;;
3331;SDS011;1678;50.94845400;5.30809100;2022-08-03T02:15:31;3.87;;;2.47;;
3331;SDS011;1678;50.94845400;5.30809100;2022-08-03T02:18:02;3.27;;;3.00;;
3331;SDS011;1678;50.94845400;5.30809100;2022-08-03T02:20:33;2.83;;;2.73;;
3331;SDS011;1678;50.94845400;5.30809100;2022-08-03T02:23:04;1.70;;;1.60;;
3331;SDS011;1678;50.94845400;5.30809100;2022-08-03T02:25:33;3.50;;;2.50;;
3331;SDS011;1678;50.94845400;5.30809100;2022-08-03T02:28:06;3.23;;;2.03;;
3331;SDS011;1678;50.94845400;5.30809100;2022-08-03T02:30:37;2.93;;;2.00;;
3331;SDS011;1678;50.94845400;5.30809100;2022-08-03T02:33:11;3.93;;;2.90;;
3331;SDS011;1678;50.94845400;5.30809100;2022-08-03T02:35:44;2.20;;;2.03;;
3331;SDS011;1678;50.94845400;5.30809100;2022-08-03T02:38:15;3.70;;;2.47;;
3331;SDS011;1678;50.94845400;5.30809100;2022-08-03T02:40:47;1.90;;;1.80;;
3331;SDS011;1678;50.94845400;5.30809100;2022-08-03T02:43:18;2.10;;;1.87;;
3331;SDS011;1678;50.94845400;5.30809100;2022-08-03T02:45:49;3.20;;;2.37;;
3331;SDS011;1678;50.94845400;5.30809100;2022-08-03T02:48:21;2.87;;;2.67;;
3331;SDS011;1678;50.94845400;5.30809100;2022-08-03T02:50:52;2.57;;;2.40;;
3331;SDS011;1678;50.94845400;5.30809100;2022-08-03T02:53:23;5.13;;;3.30;;
3331;SDS011;1678;50.94845400;5.30809100;2022-08-03T02:55:52;2.73;;;2.60;;
3331;SDS011;1678;50.94845400;5.30809100;2022-08-03T02:58:22;2.50;;;2.40;;
3331;SDS011;1678;50.94845400;5.30809100;2022-08-03T03:00:52;4.67;;;2.43;;
3331;SDS011;1678;50.94845400;5.30809100;2022-08-03T03:03:23;3.93;;;3.63;;
3331;SDS011;1678;50.94845400;5.30809100;2022-08-03T03:05:55;2.90;;;2.67;;
3331;SDS011;1678;50.94845400;5.30809100;2022-08-03T03:08:25;4.00;;;2.70;;
3331;SDS011;1678;50.94845400;5.30809100;2022-08-03T03:10:54;4.20;;;3.20;;
3331;SDS011;1678;50.94845400;5.30809100;2022-08-03T03:13:24;2.73;;;2.63;;
3331;SDS011;1678;50.94845400;5.30809100;2022-08-03T03:15:55;3.33;;;2.70;;
3331;SDS011;1678;50.94845400;5.30809100;2022-08-03T03:18:27;4.30;;;2.37;;
3331;SDS011;1678;50.94845400;5.30809100;2022-08-03T03:20:57;8.40;;;2.67;;
3331;SDS011;1678;50.94845400;5.30809100;2022-08-03T03:23:27;2.97;;;2.77;;
3331;SDS011;1678;50.94845400;5.30809100;2022-08-03T03:25:59;2.93;;;2.50;;
3331;SDS011;1678;50.94845400;5.30809100;2022-08-03T03:28:27;3.00;;;2.80;;
3331;SDS011;1678;50.94845400;5.30809100;2022-08-03T03:30:56;2.30;;;2.20;;
3331;SDS011;1678;50.94845400;5.30809100;2022-08-03T03:33:25;4.10;;;2.90;;
3331;SDS011;1678;50.94845400;5.30809100;2022-08-03T03:35:55;5.57;;;2.23;;
3331;SDS011;1678;50.94845400;5.30809100;2022-08-03T03:38:24;7.80;;;2.93;;
3331;SDS011;1678;50.94845400;5.30809100;2022-08-03T03:40:53;6.67;;;2.73;;
3331;SDS011;1678;50.94845400;5.30809100;2022-08-03T03:43:22;6.03;;;3.70;;
3331;SDS011;1678;50.94845400;5.30809100;2022-08-03T03:45:50;2.70;;;2.50;;
3331;SDS011;1678;50.94845400;5.30809100;2022-08-03T03:48:19;2.80;;;2.70;;
3331;SDS011;1678;50.94845400;5.30809100;2022-08-03T03:50:49;4.13;;;2.60;;
3331;SDS011;1678;50.94845400;5.30809100;2022-08-03T03:53:17;2.63;;;2.43;;
3331;SDS011;1678;50.94845400;5.30809100;2022-08-03T03:55:45;3.00;;;2.80;;
3331;SDS011;1678;50.94845400;5.30809100;2022-08-03T03:58:27;3.70;;;1.97;;
3331;SDS011;1678;50.94845400;5.30809100;2022-08-03T04:00:57;2.83;;;2.13;;
3331;SDS011;1678;50.94845400;5.30809100;2022-08-03T04:03:25;2.87;;;2.67;;
3331;SDS011;1678;50.94845400;5.30809100;2022-08-03T04:05:55;3.83;;;3.23;;
3331;SDS011;1678;50.94845400;5.30809100;2022-08-03T04:08:41;2.50;;;2.30;;
3331;SDS011;1678;50.94845400;5.30809100;2022-08-03T04:11:27;2.70;;;2.50;;
3331;SDS011;1678;50.94845400;5.30809100;2022-08-03T04:14:02;2.43;;;2.27;;
3331;SDS011;1678;50.94845400;5.30809100;2022-08-03T04:16:33;3.10;;;2.83;;
3331;SDS011;1678;50.94845400;5.30809100;2022-08-03T04:19:09;3.40;;;3.10;;
3331;SDS011;1678;50.94845400;5.30809100;2022-08-03T04:21:49;2.70;;;2.27;;
3331;SDS011;1678;50.94845400;5.30809100;2022-08-03T04:24:22;3.10;;;3.00;;
3331;SDS011;1678;50.94845400;5.30809100;2022-08-03T04:26:53;3.97;;;2.43;;
3331;SDS011;1678;50.94845400;5.30809100;2022-08-03T04:29:23;2.30;;;2.20;;
3331;SDS011;1678;50.94845400;5.30809100;2022-08-03T04:31:53;3.30;;;2.50;;
3331;SDS011;1678;50.94845400;5.30809100;2022-08-03T04:34:22;2.47;;;2.27;;
3331;SDS011;1678;50.94845400;5.30809100;2022-08-03T04:36:51;2.80;;;2.60;;
3331;SDS011;1678;50.94845400;5.30809100;2022-08-03T04:39:26;2.67;;;2.33;;
3331;SDS011;1678;50.94845400;5.30809100;2022-08-03T04:41:57;3.63;;;2.37;;
3331;SDS011;1678;50.94845400;5.30809100;2022-08-03T04:44:48;3.13;;;2.53;;
3331;SDS011;1678;50.94845400;5.30809100;2022-08-03T04:47:20;4.83;;;4.00;;
3331;SDS011;1678;50.94845400;5.30809100;2022-08-03T04:49:49;3.53;;;3.33;;
3331;SDS011;1678;50.94845400;5.30809100;2022-08-03T04:52:19;2.50;;;2.37;;
3331;SDS011;1678;50.94845400;5.30809100;2022-08-03T04:54:47;4.00;;;2.57;;
3331;SDS011;1678;50.94845400;5.30809100;2022-08-03T04:57:16;2.13;;;2.03;;
3331;SDS011;1678;50.94845400;5.30809100;2022-08-03T04:59:49;4.30;;;2.40;;
3331;SDS011;1678;50.94845400;5.30809100;2022-08-03T05:02:27;2.77;;;2.67;;
3331;SDS011;1678;50.94845400;5.30809100;2022-08-03T05:04:56;2.53;;;2.33;;
3331;SDS011;1678;50.94845400;5.30809100;2022-08-03T05:07:26;3.30;;;2.50;;
3331;SDS011;1678;50.94845400;5.30809100;2022-08-03T05:10:01;4.80;;;2.50;;
3331;SDS011;1678;50.94845400;5.30809100;2022-08-03T05:12:40;2.67;;;2.47;;
3331;SDS011;1678;50.94845400;5.30809100;2022-08-03T05:15:09;5.30;;;4.80;;
3331;SDS011;1678;50.94845400;5.30809100;2022-08-03T05:17:37;2.37;;;2.23;;
3331;SDS011;1678;50.94845400;5.30809100;2022-08-03T05:20:05;4.57;;;3.03;;
3331;SDS011;1678;50.94845400;5.30809100;2022-08-03T05:22:36;8.63;;;3.07;;
3331;SDS011;1678;50.94845400;5.30809100;2022-08-03T05:25:04;3.27;;;2.00;;
3331;SDS011;1678;50.94845400;5.30809100;2022-08-03T05:27:33;4.67;;;2.70;;
3331;SDS011;1678;50.94845400;5.30809100;2022-08-03T05:30:01;4.20;;;3.20;;
3331;SDS011;1678;50.94845400;5.30809100;2022-08-03T05:32:50;5.47;;;2.90;;
3331;SDS011;1678;50.94845400;5.30809100;2022-08-03T05:35:18;6.13;;;2.77;;
3331;SDS011;1678;50.94845400;5.30809100;2022-08-03T05:38:08;2.37;;;2.27;;
3331;SDS011;1678;50.94845400;5.30809100;2022-08-03T05:40:36;7.23;;;2.80;;
3331;SDS011;1678;50.94845400;5.30809100;2022-08-03T05:43:21;2.80;;;2.50;;
3331;SDS011;1678;50.94845400;5.30809100;2022-08-03T05:45:50;3.23;;;1.83;;
3331;SDS011;1678;50.94845400;5.30809100;2022-08-03T05:48:37;2.37;;;2.20;;
3331;SDS011;1678;50.94845400;5.30809100;2022-08-03T05:51:06;2.93;;;1.57;;
3331;SDS011;1678;50.94845400;5.30809100;2022-08-03T05:53:38;4.77;;;2.10;;
3331;SDS011;1678;50.94845400;5.30809100;2022-08-03T05:56:06;4.50;;;2.20;;
3331;SDS011;1678;50.94845400;5.30809100;2022-08-03T05:58:41;5.13;;;2.50;;
3331;SDS011;1678;50.94845400;5.30809100;2022-08-03T06:01:10;4.00;;;1.90;;
3331;SDS011;1678;50.94845400;5.30809100;2022-08-03T06:03:38;2.13;;;2.03;;
3331;SDS011;1678;50.94845400;5.30809100;2022-08-03T06:06:06;4.90;;;1.97;;
3331;SDS011;1678;50.94845400;5.30809100;2022-08-03T06:08:34;1.63;;;1.53;;
3331;SDS011;1678;50.94845400;5.30809100;2022-08-03T06:11:04;2.30;;;1.43;;
3331;SDS011;1678;50.94845400;5.30809100;2022-08-03T06:13:33;6.30;;;1.77;;
3331;SDS011;1678;50.94845400;5.30809100;2022-08-03T06:16:01;4.30;;;2.20;;
3331;SDS011;1678;50.94845400;5.30809100;2022-08-03T06:18:30;3.90;;;1.10;;
3331;SDS011;1678;50.94845400;5.30809100;2022-08-03T06:20:58;7.30;;;2.00;;
3331;SDS011;1678;50.94845400;5.30809100;2022-08-03T06:23:41;4.43;;;2.00;;
3331;SDS011;1678;50.94845400;5.30809100;2022-08-03T06:26:22;1.27;;;1.13;;
3331;SDS011;1678;50.94845400;5.30809100;2022-08-03T06:28:51;4.70;;;1.30;;
3331;SDS011;1678;50.94845400;5.30809100;2022-08-03T06:31:20;1.00;;;1.00;;
3331;SDS011;1678;50.94845400;5.30809100;2022-08-03T06:33:58;1.90;;;1.03;;
3331;SDS011;1678;50.94845400;5.30809100;2022-08-03T06:36:47;2.60;;;1.60;;
3331;SDS011;1678;50.94845400;5.30809100;2022-08-03T06:39:17;2.63;;;1.20;;
3331;SDS011;1678;50.94845400;5.30809100;2022-08-03T06:41:50;1.57;;;1.47;;
3331;SDS011;1678;50.94845400;5.30809100;2022-08-03T06:44:19;5.40;;;2.30;;
3331;SDS011;1678;50.94845400;5.30809100;2022-08-03T06:46:47;4.60;;;1.10;;
3331;SDS011;1678;50.94845400;5.30809100;2022-08-03T06:49:16;1.43;;;1.33;;
3331;SDS011;1678;50.94845400;5.30809100;2022-08-03T06:51:45;4.07;;;1.30;;
3331;SDS011;1678;50.94845400;5.30809100;2022-08-03T06:54:31;9.50;;;1.93;;
3331;SDS011;1678;50.94845400;5.30809100;2022-08-03T06:57:02;13.53;;;1.50;;
3331;SDS011;1678;50.94845400;5.30809100;2022-08-03T06:59:31;4.57;;;1.33;;
3331;SDS011;1678;50.94845400;5.30809100;2022-08-03T07:02:19;1.80;;;1.63;;
3331;SDS011;1678;50.94845400;5.30809100;2022-08-03T07:04:47;1.23;;;1.10;;
3331;SDS011;1678;50.94845400;5.30809100;2022-08-03T07:07:16;1.90;;;1.80;;
3331;SDS011;1678;50.94845400;5.30809100;2022-08-03T07:09:46;2.67;;;1.27;;
3331;SDS011;1678;50.94845400;5.30809100;2022-08-03T07:12:25;3.00;;;2.80;;
3331;SDS011;1678;50.94845400;5.30809100;2022-08-03T07:14:54;8.00;;;1.70;;
3331;SDS011;1678;50.94845400;5.30809100;2022-08-03T07:17:26;1.37;;;1.03;;
3331;SDS011;1678;50.94845400;5.30809100;2022-08-03T07:19:54;14.80;;;3.00;;
3331;SDS011;1678;50.94845400;5.30809100;2022-08-03T07:22:23;1.97;;;1.97;;
3331;SDS011;1678;50.94845400;5.30809100;2022-08-03T07:24:51;5.17;;;2.17;;
3331;SDS011;1678;50.94845400;5.30809100;2022-08-03T07:27:19;2.60;;;1.60;;
3331;SDS011;1678;50.94845400;5.30809100;2022-08-03T07:29:49;3.23;;;1.27;;
3331;SDS011;1678;50.94845400;5.30809100;2022-08-03T07:32:17;5.57;;;1.33;;
3331;SDS011;1678;50.94845400;5.30809100;2022-08-03T07:34:45;1.80;;;1.00;;
3331;SDS011;1678;50.94845400;5.30809100;2022-08-03T07:37:13;2.30;;;1.53;;
3331;SDS011;1678;50.94845400;5.30809100;2022-08-03T07:39:41;2.80;;;0.97;;
3331;SDS011;1678;50.94845400;5.30809100;2022-08-03T07:42:10;1.00;;;1.00;;
3331;SDS011;1678;50.94845400;5.30809100;2022-08-03T07:44:38;0.53;;;0.53;;
3331;SDS011;1678;50.94845400;5.30809100;2022-08-03T07:47:08;2.40;;;1.60;;
3331;SDS011;1678;50.94845400;5.30809100;2022-08-03T07:49:47;5.20;;;1.03;;
3331;SDS011;1678;50.94845400;5.30809100;2022-08-03T07:52:16;1.23;;;1.13;;
3331;SDS011;1678;50.94845400;5.30809100;2022-08-03T07:55:01;2.97;;;0.70;;
3331;SDS011;1678;50.94845400;5.30809100;2022-08-03T07:57:31;1.27;;;0.50;;
3331;SDS011;1678;50.94845400;5.30809100;2022-08-03T07:59:59;10.63;;;0.90;;
3331;SDS011;1678;50.94845400;5.30809100;2022-08-03T08:02:29;0.97;;;0.50;;
3331;SDS011;1678;50.94845400;5.30809100;2022-08-03T08:04:57;2.97;;;1.00;;
3331;SDS011;1678;50.94845400;5.30809100;2022-08-03T08:07:31;0.60;;;0.60;;
3331;SDS011;1678;50.94845400;5.30809100;2022-08-03T08:09:59;0.73;;;0.63;;
3331;SDS011;1678;50.94845400;5.30809100;2022-08-03T08:12:27;1.70;;;0.60;;
3331;SDS011;1678;50.94845400;5.30809100;2022-08-03T08:14:55;2.93;;;1.73;;
3331;SDS011;1678;50.94845400;5.30809100;2022-08-03T08:17:23;3.17;;;0.70;;
3331;SDS011;1678;50.94845400;5.30809100;2022-08-03T08:19:52;3.43;;;0.90;;
3331;SDS011;1678;50.94845400;5.30809100;2022-08-03T08:22:21;1.63;;;0.40;;
3331;SDS011;1678;50.94845400;5.30809100;2022-08-03T08:24:56;2.43;;;1.27;;
3331;SDS011;1678;50.94845400;5.30809100;2022-08-03T08:27:26;1.80;;;0.50;;
3331;SDS011;1678;50.94845400;5.30809100;2022-08-03T08:30:15;2.20;;;0.77;;
3331;SDS011;1678;50.94845400;5.30809100;2022-08-03T08:32:44;2.17;;;0.60;;
3331;SDS011;1678;50.94845400;5.30809100;2022-08-03T08:35:14;3.43;;;0.97;;
3331;SDS011;1678;50.94845400;5.30809100;2022-08-03T08:37:43;5.03;;;1.00;;
3331;SDS011;1678;50.94845400;5.30809100;2022-08-03T08:40:16;3.07;;;0.53;;
3331;SDS011;1678;50.94845400;5.30809100;2022-08-03T08:42:47;6.00;;;0.70;;
3331;SDS011;1678;50.94845400;5.30809100;2022-08-03T08:45:24;1.03;;;0.70;;
3331;SDS011;1678;50.94845400;5.30809100;2022-08-03T08:47:53;3.03;;;0.77;;
3331;SDS011;1678;50.94845400;5.30809100;2022-08-03T08:50:31;0.77;;;0.77;;
3331;SDS011;1678;50.94845400;5.30809100;2022-08-03T08:53:01;1.00;;;0.50;;
3331;SDS011;1678;50.94845400;5.30809100;2022-08-03T08:55:29;7.00;;;0.90;;
3331;SDS011;1678;50.94845400;5.30809100;2022-08-03T08:58:18;1.80;;;0.80;;
3331;SDS011;1678;50.94845400;5.30809100;2022-08-03T09:00:49;1.77;;;0.90;;
3331;SDS011;1678;50.94845400;5.30809100;2022-08-03T09:03:17;1.93;;;0.70;;
3331;SDS011;1678;50.94845400;5.30809100;2022-08-03T09:05:57;0.77;;;0.77;;
3331;SDS011;1678;50.94845400;5.30809100;2022-08-03T09:08:27;1.73;;;0.83;;
3331;SDS011;1678;50.94845400;5.30809100;2022-08-03T09:10:55;10.33;;;0.80;;
3331;SDS011;1678;50.94845400;5.30809100;2022-08-03T09:13:24;0.90;;;0.47;;
3331;SDS011;1678;50.94845400;5.30809100;2022-08-03T09:16:08;1.90;;;1.53;;
3331;SDS011;1678;50.94845400;5.30809100;2022-08-03T09:18:41;1.60;;;1.17;;
3331;SDS011;1678;50.94845400;5.30809100;2022-08-03T09:21:15;10.00;;;1.47;;
3331;SDS011;1678;50.94845400;5.30809100;2022-08-03T09:24:01;2.40;;;0.80;;
3331;SDS011;1678;50.94845400;5.30809100;2022-08-03T09:26:48;2.67;;;0.60;;
3331;SDS011;1678;50.94845400;5.30809100;2022-08-03T09:29:19;0.97;;;0.57;;
3331;SDS011;1678;50.94845400;5.30809100;2022-08-03T09:31:47;1.70;;;0.90;;
3331;SDS011;1678;50.94845400;5.30809100;2022-08-03T09:34:16;0.60;;;0.60;;
3331;SDS011;1678;50.94845400;5.30809100;2022-08-03T09:36:46;2.10;;;0.80;;
3331;SDS011;1678;50.94845400;5.30809100;2022-08-03T09:39:16;7.10;;;0.80;;
3331;SDS011;1678;50.94845400;5.30809100;2022-08-03T09:42:06;5.63;;;0.77;;
3331;SDS011;1678;50.94845400;5.30809100;2022-08-03T09:44:35;0.50;;;0.50;;
3331;SDS011;1678;50.94845400;5.30809100;2022-08-03T09:47:04;2.40;;;0.60;;
3331;SDS011;1678;50.94845400;5.30809100;2022-08-03T09:49:32;0.53;;;0.53;;
3331;SDS011;1678;50.94845400;5.30809100;2022-08-03T09:52:10;1.27;;;0.50;;
3331;SDS011;1678;50.94845400;5.30809100;2022-08-03T09:55:00;3.10;;;0.60;;
3331;SDS011;1678;50.94845400;5.30809100;2022-08-03T09:57:49;1.50;;;1.40;;
3331;SDS011;1678;50.94845400;5.30809100;2022-08-03T10:00:17;1.23;;;1.13;;
3331;SDS011;1678;50.94845400;5.30809100;2022-08-03T10:02:45;6.80;;;0.70;;
3331;SDS011;1678;50.94845400;5.30809100;2022-08-03T10:05:15;1.20;;;0.50;;
3331;SDS011;1678;50.94845400;5.30809100;2022-08-03T10:08:09;1.07;;;0.50;;
3331;SDS011;1678;50.94845400;5.30809100;2022-08-03T10:10:41;2.10;;;1.17;;
3331;SDS011;1678;50.94845400;5.30809100;2022-08-03T10:13:11;1.73;;;0.40;;
3331;SDS011;1678;50.94845400;5.30809100;2022-08-03T10:15:40;4.20;;;0.80;;
3331;SDS011;1678;50.94845400;5.30809100;2022-08-03T10:18:29;1.20;;;1.20;;
3331;SDS011;1678;50.94845400;5.30809100;2022-08-03T10:20:57;0.70;;;0.60;;
3331;SDS011;1678;50.94845400;5.30809100;2022-08-03T10:23:32;3.80;;;0.80;;
3331;SDS011;1678;50.94845400;5.30809100;2022-08-03T10:26:02;0.50;;;0.40;;
3331;SDS011;1678;50.94845400;5.30809100;2022-08-03T10:28:33;1.13;;;0.50;;
3331;SDS011;1678;50.94845400;5.30809100;2022-08-03T10:31:09;1.83;;;0.60;;
3331;SDS011;1678;50.94845400;5.30809100;2022-08-03T10:33:40;1.13;;;0.63;;
3331;SDS011;1678;50.94845400;5.30809100;2022-08-03T10:36:15;0.67;;;0.50;;
3331;SDS011;1678;50.94845400;5.30809100;2022-08-03T10:38:46;2.40;;;0.77;;
3331;SDS011;1678;50.94845400;5.30809100;2022-08-03T10:41:18;5.17;;;1.17;;
3331;SDS011;1678;50.94845400;5.30809100;2022-08-03T10:43:49;2.00;;;0.43;;
3331;SDS011;1678;50.94845400;5.30809100;2022-08-03T10:46:22;0.53;;;0.50;;
3331;SDS011;1678;50.94845400;5.30809100;2022-08-03T10:48:52;2.13;;;0.60;;
3331;SDS011;1678;50.94845400;5.30809100;2022-08-03T10:51:22;1.70;;;0.53;;
3331;SDS011;1678;50.94845400;5.30809100;2022-08-03T10:53:57;1.13;;;0.60;;
3331;SDS011;1678;50.94845400;5.30809100;2022-08-03T10:56:37;1.47;;;0.93;;
3331;SDS011;1678;50.94845400;5.30809100;2022-08-03T11:05:29;0.50;;;0.50;;
3331;SDS011;1678;50.94845400;5.30809100;2022-08-03T11:08:18;0.73;;;0.73;;
3331;SDS011;1678;50.94845400;5.30809100;2022-08-03T11:10:50;3.90;;;0.90;;
3331;SDS011;1678;50.94845400;5.30809100;2022-08-03T11:13:20;1.50;;;0.60;;
3331;SDS011;1678;50.94845400;5.30809100;2022-08-03T11:15:50;0.80;;;0.43;;
3331;SDS011;1678;50.94845400;5.30809100;2022-08-03T11:18:28;1.70;;;0.70;;
3331;SDS011;1678;50.94845400;5.30809100;2022-08-03T11:20:57;2.73;;;0.67;;
3331;SDS011;1678;50.94845400;5.30809100;2022-08-03T11:23:39;1.27;;;0.50;;
3331;SDS011;1678;50.94845400;5.30809100;2022-08-03T11:26:30;5.83;;;0.73;;
3331;SDS011;1678;50.94845400;5.30809100;2022-08-03T11:31:56;2.53;;;0.80;;
3331;SDS011;1678;50.94845400;5.30809100;2022-08-03T11:34:24;0.50;;;0.50;;
3331;SDS011;1678;50.94845400;5.30809100;2022-08-03T11:39:55;0.50;;;0.50;;
3331;SDS011;1678;50.94845400;5.30809100;2022-08-03T11:42:42;1.43;;;0.83;;
3331;SDS011;1678;50.94845400;5.30809100;2022-08-03T11:45:12;6.30;;;0.57;;
3331;SDS011;1678;50.94845400;5.30809100;2022-08-03T11:47:40;0.50;;;0.50;;
3331;SDS011;1678;50.94845400;5.30809100;2022-08-03T11:50:16;1.70;;;0.57;;
3331;SDS011;1678;50.94845400;5.30809100;2022-08-03T11:52:47;0.50;;;0.40;;
3331;SDS011;1678;50.94845400;5.30809100;2022-08-03T11:55:16;1.33;;;0.70;;
3331;SDS011;1678;50.94845400;5.30809100;2022-08-03T11:57:47;2.60;;;0.60;;
3331;SDS011;1678;50.94845400;5.30809100;2022-08-03T12:00:35;1.47;;;0.80;;
3331;SDS011;1678;50.94845400;5.30809100;2022-08-03T12:03:04;1.30;;;1.13;;
3331;SDS011;1678;50.94845400;5.30809100;2022-08-03T12:08:05;0.63;;;0.63;;
3331;SDS011;1678;50.94845400;5.30809100;2022-08-03T12:10:34;5.13;;;0.83;;
3331;SDS011;1678;50.94845400;5.30809100;2022-08-03T12:13:05;0.57;;;0.57;;
3331;SDS011;1678;50.94845400;5.30809100;2022-08-03T12:15:55;2.33;;;0.50;;
3331;SDS011;1678;50.94845400;5.30809100;2022-08-03T12:18:24;1.43;;;1.37;;
3331;SDS011;1678;50.94845400;5.30809100;2022-08-03T12:20:54;0.70;;;0.67;;
3331;SDS011;1678;50.94845400;5.30809100;2022-08-03T12:23:31;0.73;;;0.73;;
3331;SDS011;1678;50.94845400;5.30809100;2022-08-03T12:26:03;0.83;;;0.77;;
3331;SDS011;1678;50.94845400;5.30809100;2022-08-03T12:28:35;2.87;;;0.83;;
3331;SDS011;1678;50.94845400;5.30809100;2022-08-03T12:31:05;0.93;;;0.93;;
3331;SDS011;1678;50.94845400;5.30809100;2022-08-03T12:36:28;1.00;;;1.00;;
3331;SDS011;1678;50.94845400;5.30809100;2022-08-03T12:39:00;0.80;;;0.80;;
3331;SDS011;1678;50.94845400;5.30809100;2022-08-03T12:41:31;1.37;;;1.27;;
3331;SDS011;1678;50.94845400;5.30809100;2022-08-03T12:44:02;1.17;;;0.73;;
3331;SDS011;1678;50.94845400;5.30809100;2022-08-03T12:46:33;1.10;;;0.80;;
3331;SDS011;1678;50.94845400;5.30809100;2022-08-03T12:49:06;2.63;;;0.63;;
3331;SDS011;1678;50.94845400;5.30809100;2022-08-03T12:51:37;0.60;;;0.60;;
3331;SDS011;1678;50.94845400;5.30809100;2022-08-03T12:54:23;0.57;;;0.57;;
3331;SDS011;1678;50.94845400;5.30809100;2022-08-03T12:56:58;1.80;;;0.87;;
3331;SDS011;1678;50.94845400;5.30809100;2022-08-03T12:59:29;3.20;;;0.80;;
3331;SDS011;1678;50.94845400;5.30809100;2022-08-03T13:02:12;2.83;;;1.60;;
3331;SDS011;1678;50.94845400;5.30809100;2022-08-03T13:04:43;0.70;;;0.70;;
3331;SDS011;1678;50.94845400;5.30809100;2022-08-03T13:07:12;1.20;;;1.10;;
3331;SDS011;1678;50.94845400;5.30809100;2022-08-03T13:09:43;0.60;;;0.60;;
3331;SDS011;1678;50.94845400;5.30809100;2022-08-03T13:12:13;1.33;;;0.97;;
3331;SDS011;1678;50.94845400;5.30809100;2022-08-03T13:14:44;0.73;;;0.50;;
3331;SDS011;1678;50.94845400;5.30809100;2022-08-03T13:17:13;4.17;;;1.20;;
3331;SDS011;1678;50.94845400;5.30809100;2022-08-03T13:19:43;0.50;;;0.50;;
3331;SDS011;1678;50.94845400;5.30809100;2022-08-03T13:22:13;0.77;;;0.70;;
3331;SDS011;1678;50.94845400;5.30809100;2022-08-03T13:24:43;1.50;;;0.70;;
3331;SDS011;1678;50.94845400;5.30809100;2022-08-03T13:27:12;0.70;;;0.70;;
3331;SDS011;1678;50.94845400;5.30809100;2022-08-03T13:30:02;3.43;;;1.03;;
3331;SDS011;1678;50.94845400;5.30809100;2022-08-03T13:32:31;1.00;;;0.80;;
3331;SDS011;1678;50.94845400;5.30809100;2022-08-03T13:34:59;0.93;;;0.80;;
3331;SDS011;1678;50.94845400;5.30809100;2022-08-03T13:37:28;1.50;;;0.77;;
3331;SDS011;1678;50.94845400;5.30809100;2022-08-03T13:39:57;0.90;;;0.90;;
3331;SDS011;1678;50.94845400;5.30809100;2022-08-03T13:42:30;3.93;;;0.80;;
3331;SDS011;1678;50.94845400;5.30809100;2022-08-03T13:44:59;1.50;;;0.60;;
3331;SDS011;1678;50.94845400;5.30809100;2022-08-03T13:47:29;1.80;;;1.10;;
3331;SDS011;1678;50.94845400;5.30809100;2022-08-03T13:49:57;4.57;;;1.07;;
3331;SDS011;1678;50.94845400;5.30809100;2022-08-03T13:52:29;1.90;;;0.50;;
3331;SDS011;1678;50.94845400;5.30809100;2022-08-03T13:54:58;1.40;;;0.60;;
3331;SDS011;1678;50.94845400;5.30809100;2022-08-03T13:57:26;1.80;;;0.90;;
3331;SDS011;1678;50.94845400;5.30809100;2022-08-03T14:00:15;2.03;;;0.60;;